createdAt,value
2023-03-28T00:00:57.409Z,10.25
2023-03-28T00:03:27.210Z,10.27
2023-03-28T00:06:00.869Z,10.08
2023-03-28T00:08:29.487Z,10.15
2023-03-28T00:11:23.967Z,9.95
2023-03-28T00:13:57.717Z,9.88
2023-03-28T00:16:25.850Z,9.73
2023-03-28T00:18:53.489Z,10.11
2023-03-28T00:21:23.670Z,9.99
2023-03-28T00:23:57.118Z,9.95
2023-03-28T00:26:26.627Z,9.95
2023-03-28T00:28:54.838Z,10.03
2023-03-28T00:31:23.271Z,9.86
2023-03-28T00:33:50.770Z,9.77
2023-03-28T00:36:23.041Z,9.62
2023-03-28T00:38:50.397Z,9.36
2023-03-28T00:41:18.474Z,9.38
2023-03-28T00:43:48.435Z,9.36
2023-03-28T00:46:30.707Z,9.60
2023-03-28T00:49:01.496Z,9.64
2023-03-28T00:51:36.878Z,9.41
2023-03-28T00:54:08.495Z,9.51
2023-03-28T00:56:37.912Z,9.70
2023-03-28T00:59:10.812Z,9.54
2023-03-28T01:01:38.435Z,9.12
2023-03-28T01:04:06.892Z,8.96
2023-03-28T01:06:40.585Z,8.75
2023-03-28T01:09:09.970Z,8.48
2023-03-28T01:11:41.016Z,8.60
2023-03-28T01:14:17.812Z,8.78
2023-03-28T01:16:47.827Z,8.79
2023-03-28T01:19:37.336Z,8.84
2023-03-28T01:22:16.588Z,9.12
2023-03-28T01:24:59.130Z,9.05
2023-03-28T01:27:45.635Z,8.85
2023-03-28T01:30:34.109Z,8.82
2023-03-28T01:33:49.565Z,8.78
2023-03-28T01:36:45.704Z,8.67
2023-03-28T01:39:39.696Z,8.61
2023-03-28T01:42:38.105Z,8.66
2023-03-28T01:45:41.436Z,8.23
2023-03-28T01:48:14.883Z,7.99
2023-03-28T01:50:48.306Z,7.93
2023-03-28T01:53:31.882Z,7.91
2023-03-28T01:56:26.584Z,7.93
2023-03-28T01:59:04.969Z,7.87
2023-03-28T02:02:01.913Z,7.91
2023-03-28T02:04:33.696Z,7.86
2023-03-28T02:07:03.028Z,7.70
2023-03-28T02:09:37.747Z,7.32
2023-03-28T02:12:52.081Z,7.14
2023-03-28T02:15:39.768Z,7.12
2023-03-28T02:18:34.201Z,6.99
2023-03-28T02:21:45.538Z,6.86
2023-03-28T02:24:42.513Z,6.95
2023-03-28T02:27:22.596Z,6.94
2023-03-28T02:30:09.811Z,7.04
2023-03-28T02:32:38.693Z,7.08
2023-03-28T02:35:07.262Z,6.84
2023-03-28T02:38:08.320Z,6.92
2023-03-28T02:40:54.114Z,6.92
2023-03-28T02:43:33.410Z,6.87
2023-03-28T02:46:01.211Z,6.97
2023-03-28T02:48:49.627Z,6.94
2023-03-28T02:51:23.645Z,6.97
2023-03-28T02:54:12.644Z,6.78
2023-03-28T02:56:53.017Z,6.87
2023-03-28T02:59:46.469Z,6.91
2023-03-28T03:02:19.161Z,6.87
2023-03-28T03:04:46.772Z,7.03
2023-03-28T03:07:14.590Z,7.04
2023-03-28T03:09:43.793Z,7.11
2023-03-28T03:12:13.725Z,7.40
2023-03-28T03:14:42.096Z,7.68
2023-03-28T03:17:30.446Z,7.41
2023-03-28T03:19:59.105Z,7.22
2023-03-28T03:22:35.173Z,7.33
2023-03-28T03:25:06.727Z,7.11
2023-03-28T03:27:41.012Z,6.89
2023-03-28T03:30:11.877Z,6.93
2023-03-28T03:33:00.712Z,7.04
2023-03-28T03:35:33.540Z,7.06
2023-03-28T03:38:04.679Z,7.18
2023-03-28T03:40:32.155Z,7.19
2023-03-28T03:43:00.292Z,7.21
2023-03-28T03:45:28.582Z,6.97
2023-03-28T03:47:56.005Z,6.91
2023-03-28T03:50:23.564Z,6.82
2023-03-28T03:52:51.131Z,6.88
2023-03-28T03:55:24.065Z,6.86
2023-03-28T03:57:51.373Z,6.89
2023-03-28T04:00:18.850Z,6.83
2023-03-28T04:02:50.596Z,6.83
2023-03-28T04:05:22.881Z,6.66
2023-03-28T04:08:02.199Z,6.71
2023-03-28T04:10:38.515Z,6.73
2023-03-28T04:13:05.998Z,6.70
2023-03-28T04:15:34.961Z,6.39
2023-03-28T04:18:06.910Z,6.15
2023-03-28T04:20:41.173Z,5.94
2023-03-28T04:23:09.677Z,5.96
2023-03-28T04:25:41.716Z,6.02
2023-03-28T04:28:19.838Z,6.17
2023-03-28T04:30:59.893Z,6.18
2023-03-28T04:33:50.088Z,6.13
2023-03-28T04:36:22.538Z,6.22
2023-03-28T04:39:02.338Z,6.19
2023-03-28T04:41:46.325Z,6.22
2023-03-28T04:44:29.509Z,6.35
2023-03-28T04:47:02.407Z,6.35
2023-03-28T04:49:29.897Z,6.36
2023-03-28T04:51:57.317Z,6.27
2023-03-28T04:54:24.627Z,6.45
2023-03-28T04:57:05.000Z,6.44
2023-03-28T04:59:46.750Z,6.41
2023-03-28T05:02:38.060Z,6.43
2023-03-28T05:05:07.602Z,6.29
2023-03-28T05:07:35.688Z,6.28
2023-03-28T05:10:04.311Z,6.32
2023-03-28T05:12:37.108Z,6.32
2023-03-28T05:15:06.329Z,6.46
2023-03-28T05:17:42.901Z,6.50
2023-03-28T05:20:32.657Z,6.48
2023-03-28T05:23:01.356Z,6.46
2023-03-28T05:25:29.352Z,6.60
2023-03-28T05:27:56.959Z,6.82
2023-03-28T05:30:25.297Z,6.95
2023-03-28T05:32:55.569Z,7.05
2023-03-28T05:35:23.047Z,7.21
2023-03-28T05:37:51.559Z,7.28
2023-03-28T05:40:19.388Z,7.20
2023-03-28T05:42:46.771Z,7.42
2023-03-28T05:45:16.423Z,7.90
2023-03-28T05:47:56.928Z,8.31
2023-03-28T05:50:24.950Z,8.40
2023-03-28T05:52:56.985Z,8.94
2023-03-28T05:55:24.691Z,9.87
2023-03-28T05:57:52.123Z,11.74
2023-03-28T06:00:21.208Z,12.23
2023-03-28T06:02:54.796Z,13.16
2023-03-28T06:05:31.485Z,15.05
2023-03-28T06:07:59.035Z,16.20
2023-03-28T06:10:29.369Z,16.39
2023-03-28T06:13:11.663Z,17.03
2023-03-28T06:15:39.030Z,14.61
2023-03-28T06:18:06.840Z,12.69
2023-03-28T06:20:34.233Z,11.62
2023-03-28T06:23:03.649Z,13.72
2023-03-28T06:25:31.761Z,16.13
2023-03-28T06:27:59.193Z,17.59
2023-03-28T06:30:26.536Z,18.71
2023-03-28T06:32:54.362Z,19.06
2023-03-28T06:35:21.762Z,20.88
2023-03-28T06:37:49.437Z,20.34
2023-03-28T06:40:23.391Z,20.02
2023-03-28T06:42:51.217Z,20.66
2023-03-28T06:45:30.239Z,20.70
2023-03-28T06:48:03.068Z,21.29
2023-03-28T06:50:57.227Z,21.98
2023-03-28T06:53:26.282Z,20.87
2023-03-28T06:55:55.013Z,22.38
2023-03-28T06:58:23.251Z,21.30
2023-03-28T07:01:01.331Z,21.98
2023-03-28T07:03:52.044Z,22.64
2023-03-28T07:06:21.968Z,21.65
2023-03-28T07:08:49.516Z,21.96
2023-03-28T07:11:20.592Z,21.93
2023-03-28T07:13:50.580Z,22.62
2023-03-28T07:16:19.662Z,21.94
2023-03-28T07:18:47.205Z,22.64
2023-03-28T07:21:20.531Z,22.98
2023-03-28T07:23:47.922Z,22.01
2023-03-28T07:26:19.139Z,22.70
2023-03-28T07:28:46.579Z,22.51
2023-03-28T07:31:13.946Z,23.45
2023-03-28T07:33:41.476Z,22.86
2023-03-28T07:36:15.687Z,23.24
2023-03-28T07:38:48.067Z,22.95
2023-03-28T07:41:17.018Z,23.28
2023-03-28T07:43:44.867Z,24.13
2023-03-28T07:46:15.021Z,24.77
2023-03-28T07:48:43.481Z,24.33
2023-03-28T07:51:11.373Z,24.90
2023-03-28T07:53:39.691Z,24.91
2023-03-28T07:56:12.149Z,25.56
2023-03-28T07:58:58.442Z,25.80
2023-03-28T08:01:26.419Z,26.51
2023-03-28T08:03:59.464Z,25.04
2023-03-28T08:06:38.145Z,25.95
2023-03-28T08:09:10.577Z,26.37
2023-03-28T08:11:42.119Z,26.50
2023-03-28T08:14:15.788Z,25.80
2023-03-28T08:16:44.340Z,25.83
2023-03-28T08:19:12.676Z,25.61
2023-03-28T08:22:02.629Z,25.69
2023-03-28T08:24:36.132Z,26.17
2023-03-28T08:27:12.497Z,26.19
2023-03-28T08:29:41.719Z,25.41
2023-03-28T08:32:09.924Z,25.52
2023-03-28T08:34:38.033Z,26.35
2023-03-28T08:37:12.011Z,26.22
2023-03-28T08:39:42.704Z,26.61
2023-03-28T08:42:14.667Z,26.09
2023-03-28T08:45:03.395Z,26.00
2023-03-28T08:47:33.067Z,26.05
2023-03-28T08:50:12.279Z,25.73
2023-03-28T08:52:41.667Z,26.72
2023-03-28T08:55:36.856Z,25.97
2023-03-28T08:58:07.129Z,26.25
2023-03-28T09:00:38.908Z,26.02
2023-03-28T09:03:13.022Z,26.44
2023-03-28T09:06:02.357Z,26.73
2023-03-28T09:09:04.732Z,26.77
2023-03-28T09:11:58.606Z,27.13
2023-03-28T09:14:41.186Z,26.71
2023-03-28T09:17:31.277Z,25.69
2023-03-28T09:20:16.490Z,25.03
2023-03-28T09:23:01.744Z,25.12
2023-03-28T09:26:01.732Z,24.81
2023-03-28T09:28:44.888Z,26.50
2023-03-28T09:31:14.296Z,25.86
2023-03-28T09:33:46.082Z,25.07
2023-03-28T09:36:25.942Z,24.88
2023-03-28T09:38:59.055Z,24.93
2023-03-28T09:41:43.988Z,25.53
2023-03-28T09:44:47.328Z,26.83
2023-03-28T09:47:53.398Z,26.21
2023-03-28T09:50:24.407Z,25.10
2023-03-28T09:52:57.480Z,25.38
2023-03-28T09:55:28.009Z,25.89
2023-03-28T09:58:05.421Z,26.17
2023-03-28T10:00:46.560Z,25.62
2023-03-28T10:03:56.664Z,24.67
2023-03-28T10:06:45.600Z,24.67
2023-03-28T10:09:12.935Z,24.80
2023-03-28T10:11:54.515Z,26.47
2023-03-28T10:14:42.019Z,25.82
2023-03-28T10:17:27.623Z,24.42
2023-03-28T10:20:01.841Z,26.24
2023-03-28T10:22:39.370Z,25.09
2023-03-28T10:25:15.423Z,25.72
2023-03-28T10:27:44.417Z,24.63
2023-03-28T10:30:20.941Z,23.74
2023-03-28T10:33:21.333Z,24.07
2023-03-28T10:36:10.512Z,25.63
2023-03-28T10:38:48.507Z,26.42
2023-03-28T10:41:59.605Z,24.33
2023-03-28T10:44:59.855Z,24.85
2023-03-28T10:47:30.680Z,24.74
2023-03-28T10:50:07.163Z,25.08
2023-03-28T10:52:40.567Z,25.05
2023-03-28T10:55:20.808Z,23.95
2023-03-28T10:58:26.222Z,23.81
2023-03-28T11:01:04.715Z,24.04
2023-03-28T11:03:51.731Z,22.31
2023-03-28T11:06:39.484Z,23.60
2023-03-28T11:09:23.301Z,23.04
2023-03-28T11:13:04.814Z,23.59
2023-03-28T11:15:53.719Z,23.80
2023-03-28T11:18:48.245Z,23.63
2023-03-28T11:21:28.212Z,23.26
2023-03-28T11:24:23.992Z,23.39
2023-03-28T11:27:23.230Z,23.36
2023-03-28T11:30:14.758Z,23.32
2023-03-28T11:33:00.646Z,22.20
2023-03-28T11:35:33.973Z,21.54
2023-03-28T11:38:12.747Z,22.33
2023-03-28T11:41:07.253Z,21.64
2023-03-28T11:44:11.644Z,22.20
2023-03-28T11:46:56.558Z,22.47
2023-03-28T11:49:33.917Z,22.56
2023-03-28T11:52:09.164Z,22.95
2023-03-28T11:54:52.390Z,22.92
2023-03-28T11:57:28.997Z,22.03
2023-03-28T12:00:40.937Z,21.04
2023-03-28T12:03:37.363Z,21.18
2023-03-28T12:06:26.051Z,21.58
2023-03-28T12:09:04.441Z,21.72
2023-03-28T12:11:51.637Z,21.42
2023-03-28T12:14:37.763Z,21.18
2023-03-28T12:17:22.207Z,21.15
2023-03-28T12:19:49.744Z,21.74
2023-03-28T12:22:26.767Z,22.15
2023-03-28T12:25:18.368Z,21.76
2023-03-28T12:28:01.303Z,21.40
2023-03-28T12:30:45.461Z,21.25
2023-03-28T12:33:51.535Z,22.13
2023-03-28T12:37:12.291Z,21.75
2023-03-28T12:39:54.878Z,21.63
2023-03-28T12:42:27.295Z,21.85
2023-03-28T12:45:03.702Z,22.12
2023-03-28T12:47:45.058Z,21.54
2023-03-28T12:50:25.301Z,21.23
2023-03-28T12:52:53.686Z,21.18
2023-03-28T12:55:34.152Z,21.02
2023-03-28T12:58:20.764Z,21.06
2023-03-28T13:01:06.138Z,21.00
2023-03-28T13:03:42.388Z,20.86
2023-03-28T13:06:28.270Z,21.25
2023-03-28T13:09:14.528Z,20.39
2023-03-28T13:11:52.668Z,21.12
2023-03-28T13:14:36.607Z,21.37
2023-03-28T13:17:25.284Z,22.09
2023-03-28T13:19:53.516Z,22.03
2023-03-28T13:22:32.924Z,22.02
2023-03-28T13:25:22.259Z,22.36
2023-03-28T13:27:51.759Z,21.85
2023-03-28T13:30:21.527Z,22.50
2023-03-28T13:32:51.018Z,22.02
2023-03-28T13:35:42.995Z,20.78
2023-03-28T13:38:29.373Z,21.16
2023-03-28T13:41:01.377Z,21.05
2023-03-28T13:43:34.977Z,20.60
2023-03-28T13:46:19.513Z,21.11
2023-03-28T13:49:01.220Z,21.29
2023-03-28T13:51:39.104Z,21.24
2023-03-28T13:54:10.680Z,21.68
2023-03-28T13:56:43.653Z,21.30
2023-03-28T13:59:26.634Z,21.95
2023-03-28T14:01:57.507Z,21.90
2023-03-28T14:04:35.872Z,22.04
2023-03-28T14:07:03.488Z,21.81
2023-03-28T14:09:35.346Z,21.69
2023-03-28T14:12:06.627Z,22.02
2023-03-28T14:14:47.459Z,21.38
2023-03-28T14:17:18.291Z,20.94
2023-03-28T14:19:51.222Z,20.86
2023-03-28T14:22:21.586Z,21.01
2023-03-28T14:24:52.917Z,21.09
2023-03-28T14:27:41.505Z,21.26
2023-03-28T14:30:39.268Z,21.52
2023-03-28T14:33:14.667Z,21.04
2023-03-28T14:35:43.015Z,21.20
2023-03-28T14:38:30.089Z,21.05
2023-03-28T14:41:06.812Z,20.61
2023-03-28T14:43:34.578Z,21.14
2023-03-28T14:46:06.619Z,20.87
2023-03-28T14:48:36.963Z,21.01
2023-03-28T14:51:05.881Z,20.86
2023-03-28T14:53:40.950Z,20.43
2023-03-28T14:56:12.803Z,20.63
2023-03-28T14:58:43.817Z,20.47
2023-03-28T15:01:22.686Z,19.80
2023-03-28T15:04:06.685Z,20.09
2023-03-28T15:06:35.342Z,20.00
2023-03-28T15:09:11.269Z,20.05
2023-03-28T15:11:43.462Z,19.82
2023-03-28T15:14:22.991Z,19.85
2023-03-28T15:16:50.824Z,20.05
2023-03-28T15:19:34.365Z,19.81
2023-03-28T15:22:05.301Z,19.97
2023-03-28T15:24:35.513Z,19.45
2023-03-28T15:27:04.155Z,19.40
2023-03-28T15:29:36.050Z,19.37
2023-03-28T15:32:13.723Z,19.68
2023-03-28T15:34:55.536Z,19.64
2023-03-28T15:37:25.899Z,19.09
2023-03-28T15:39:53.837Z,19.06
2023-03-28T15:42:21.397Z,19.16
2023-03-28T15:44:57.567Z,19.12
2023-03-28T15:47:30.198Z,19.10
2023-03-28T15:50:36.070Z,19.05
2023-03-28T15:53:07.379Z,19.21
2023-03-28T15:55:35.031Z,19.13
2023-03-28T15:58:04.784Z,19.06
2023-03-28T16:00:42.462Z,19.05
2023-03-28T16:03:21.757Z,18.41
2023-03-28T16:06:01.880Z,18.50
2023-03-28T16:08:41.180Z,18.71
2023-03-28T16:11:17.146Z,18.46
2023-03-28T16:14:04.437Z,18.23
2023-03-28T16:16:56.431Z,18.34
2023-03-28T16:19:36.677Z,18.55
2023-03-28T16:22:04.107Z,18.17
2023-03-28T16:24:31.518Z,17.76
2023-03-28T16:26:59.840Z,17.63
2023-03-28T16:29:27.907Z,17.94
2023-03-28T16:31:55.265Z,17.73
2023-03-28T16:34:22.655Z,17.82
2023-03-28T16:36:50.041Z,17.42
2023-03-28T16:39:17.466Z,17.34
2023-03-28T16:41:44.761Z,17.59
2023-03-28T16:44:11.987Z,17.26
2023-03-28T16:46:39.498Z,17.16
2023-03-28T16:49:07.541Z,17.27
2023-03-28T16:51:34.870Z,17.14
2023-03-28T16:54:02.220Z,17.03
2023-03-28T16:56:30.266Z,16.78
2023-03-28T16:58:57.688Z,16.98
2023-03-28T17:01:25.229Z,17.12
2023-03-28T17:03:53.584Z,17.26
2023-03-28T17:06:21.864Z,17.17
2023-03-28T17:08:49.543Z,16.72
2023-03-28T17:11:16.885Z,16.77
2023-03-28T17:13:44.188Z,16.80
2023-03-28T17:16:11.618Z,16.52
2023-03-28T17:18:38.995Z,16.32
2023-03-28T17:21:09.329Z,16.29
2023-03-28T17:23:38.052Z,16.24
2023-03-28T17:26:08.323Z,16.08
2023-03-28T17:28:39.207Z,15.93
2023-03-28T17:31:11.745Z,15.90
2023-03-28T17:33:39.586Z,15.71
2023-03-28T17:36:22.001Z,15.51
2023-03-28T17:38:51.557Z,15.26
2023-03-28T17:41:19.883Z,15.28
2023-03-28T17:43:47.360Z,15.13
2023-03-28T17:46:15.210Z,14.96
2023-03-28T17:48:43.304Z,14.92
2023-03-28T17:51:11.679Z,14.77
2023-03-28T17:53:41.031Z,14.67
2023-03-28T17:56:09.743Z,14.62
2023-03-28T17:58:37.767Z,14.53
2023-03-28T18:01:13.518Z,14.40
2023-03-28T18:03:41.648Z,14.41
2023-03-28T18:06:29.363Z,14.33
2023-03-28T18:08:56.691Z,14.30
2023-03-28T18:11:24.027Z,14.28
2023-03-28T18:13:53.671Z,14.26
2023-03-28T18:16:21.035Z,14.02
2023-03-28T18:18:48.453Z,13.74
2023-03-28T18:21:15.852Z,13.64
2023-03-28T18:23:43.537Z,13.74
2023-03-28T18:26:12.138Z,13.78
2023-03-28T18:28:39.809Z,13.84
2023-03-28T18:31:12.498Z,13.66
2023-03-28T18:33:42.201Z,13.67
2023-03-28T18:36:10.699Z,13.67
2023-03-28T18:38:40.150Z,13.56
2023-03-28T18:41:08.368Z,13.52
2023-03-28T18:43:37.721Z,13.42
2023-03-28T18:46:07.763Z,13.44
2023-03-28T18:48:36.265Z,13.50
2023-03-28T18:51:06.653Z,13.53
2023-03-28T18:53:35.555Z,13.38
2023-03-28T18:56:04.074Z,13.39
2023-03-28T18:58:32.365Z,13.29
2023-03-28T19:01:04.074Z,13.20
2023-03-28T19:03:42.282Z,13.26
2023-03-28T19:06:12.402Z,13.23
2023-03-28T19:08:40.428Z,13.27
2023-03-28T19:11:19.034Z,13.28
2023-03-28T19:13:47.090Z,13.30
2023-03-28T19:16:19.391Z,13.22
2023-03-28T19:18:47.304Z,13.18
2023-03-28T19:21:16.723Z,13.20
2023-03-28T19:23:44.600Z,13.06
2023-03-28T19:26:13.099Z,13.04
2023-03-28T19:28:41.552Z,13.04
2023-03-28T19:31:11.173Z,13.06
2023-03-28T19:33:40.839Z,12.89
2023-03-28T19:36:09.801Z,12.80
2023-03-28T19:38:38.720Z,12.65
2023-03-28T19:41:15.744Z,12.66
2023-03-28T19:43:43.666Z,12.57
2023-03-28T19:46:15.477Z,12.58
2023-03-28T19:48:42.894Z,12.56
2023-03-28T19:51:10.323Z,12.50
2023-03-28T19:53:37.782Z,12.45
2023-03-28T19:56:06.770Z,12.32
2023-03-28T19:58:35.159Z,12.24
2023-03-28T20:01:04.084Z,12.36
2023-03-28T20:03:31.883Z,12.22
2023-03-28T20:06:08.540Z,12.04
2023-03-28T20:08:35.949Z,11.84
2023-03-28T20:11:07.218Z,11.83
2023-03-28T20:13:34.868Z,12.11
2023-03-28T20:16:04.365Z,12.05
2023-03-28T20:18:32.675Z,12.04
2023-03-28T20:21:02.654Z,12.06
2023-03-28T20:23:32.760Z,12.13
2023-03-28T20:26:01.685Z,12.00
2023-03-28T20:28:32.004Z,11.94
2023-03-28T20:30:59.777Z,11.70
2023-03-28T20:33:27.302Z,11.62
2023-03-28T20:35:57.133Z,11.56
2023-03-28T20:38:25.955Z,11.49
2023-03-28T20:40:53.324Z,11.46
2023-03-28T20:43:21.089Z,11.62
2023-03-28T20:45:56.250Z,11.57
2023-03-28T20:48:37.221Z,11.66
2023-03-28T20:51:14.313Z,11.60
2023-03-28T20:53:50.130Z,11.56
2023-03-28T20:56:19.988Z,11.51
2023-03-28T20:58:48.311Z,11.38
2023-03-28T21:01:16.516Z,11.21
2023-03-28T21:03:48.272Z,11.22
2023-03-28T21:06:28.900Z,11.39
2023-03-28T21:09:01.759Z,11.40
2023-03-28T21:11:31.983Z,11.36
2023-03-28T21:14:00.383Z,11.27
2023-03-28T21:16:29.495Z,11.18
2023-03-28T21:18:57.452Z,11.08
2023-03-28T21:21:25.187Z,10.99
2023-03-28T21:23:53.210Z,10.94
2023-03-28T21:26:22.947Z,10.90
2023-03-28T21:28:52.519Z,10.88
2023-03-28T21:31:24.919Z,10.93
2023-03-28T21:33:59.435Z,10.96
2023-03-28T21:36:28.033Z,11.04
2023-03-28T21:38:56.196Z,10.87
2023-03-28T21:41:23.891Z,10.97
2023-03-28T21:43:53.671Z,10.84
2023-03-28T21:46:21.995Z,10.65
2023-03-28T21:48:50.005Z,10.62
2023-03-28T21:51:17.833Z,10.71
2023-03-28T21:53:46.182Z,10.69
2023-03-28T21:56:16.279Z,10.71
2023-03-28T21:58:44.029Z,10.54
2023-03-28T22:01:13.861Z,10.57
2023-03-28T22:03:41.462Z,10.51
2023-03-28T22:06:09.172Z,10.16
2023-03-28T22:08:36.697Z,10.22
2023-03-28T22:11:13.492Z,10.22
2023-03-28T22:13:42.005Z,10.25
2023-03-28T22:16:09.638Z,10.44
2023-03-28T22:18:37.104Z,10.51
2023-03-28T22:21:04.971Z,10.45
2023-03-28T22:23:32.327Z,10.05
2023-03-28T22:25:59.669Z,9.90
2023-03-28T22:28:27.059Z,9.87
2023-03-28T22:30:55.345Z,9.77
2023-03-28T22:33:24.132Z,9.84
2023-03-28T22:35:51.806Z,10.13
2023-03-28T22:38:19.518Z,10.04
2023-03-28T22:40:47.622Z,10.09
2023-03-28T22:43:16.413Z,10.02
2023-03-28T22:45:43.895Z,10.16
2023-03-28T22:48:14.643Z,10.04
2023-03-28T22:50:44.301Z,9.96
2023-03-28T22:53:12.593Z,10.02
2023-03-28T22:55:41.696Z,9.78
2023-03-28T22:58:09.074Z,9.69
2023-03-28T23:00:36.622Z,9.81
2023-03-28T23:03:04.144Z,9.72
2023-03-28T23:05:32.005Z,9.81
2023-03-28T23:08:00.239Z,9.66
2023-03-28T23:10:28.118Z,9.58
2023-03-28T23:12:55.450Z,9.74
2023-03-28T23:15:22.873Z,9.66
2023-03-28T23:17:50.910Z,9.62
2023-03-28T23:20:19.197Z,9.56
2023-03-28T23:22:48.627Z,9.59
2023-03-28T23:25:18.709Z,9.69
2023-03-28T23:27:46.661Z,9.69
2023-03-28T23:30:15.756Z,9.83
2023-03-28T23:32:43.509Z,9.90
2023-03-28T23:35:11.836Z,9.95
2023-03-28T23:37:39.539Z,9.85
2023-03-28T23:40:14.839Z,9.75
2023-03-28T23:42:44.733Z,9.71
2023-03-28T23:45:14.678Z,9.44
2023-03-28T23:47:43.959Z,9.18
2023-03-28T23:50:12.059Z,9.13
2023-03-28T23:52:39.996Z,9.21
2023-03-28T23:55:08.770Z,9.49
2023-03-28T23:57:36.405Z,9.56
